createdAt,value
2023-04-12T00:02:18.124Z,43.19
2023-04-12T00:07:40.055Z,43.46
2023-04-12T00:13:02.030Z,43.29
2023-04-12T00:18:24.033Z,43.61
2023-04-12T00:23:46.026Z,43.12
2023-04-12T00:29:08.035Z,43.40
2023-04-12T00:34:30.031Z,43.85
2023-04-12T00:39:52.037Z,44.22
2023-04-12T00:45:15.039Z,44.35
2023-04-12T00:50:37.007Z,44.71
2023-04-12T00:55:59.017Z,44.85
2023-04-12T01:01:23.058Z,45.50
2023-04-12T01:07:10.040Z,45.10
2023-04-12T01:12:57.027Z,45.00
2023-04-12T01:18:23.030Z,45.36
2023-04-12T01:24:02.048Z,45.60
2023-04-12T01:29:29.001Z,45.73
2023-04-12T01:34:51.990Z,45.80
2023-04-12T01:40:15.997Z,45.83
2023-04-12T01:45:38.110Z,46.03
2023-04-12T01:51:12.029Z,46.20
2023-04-12T01:56:35.995Z,46.25
2023-04-12T02:01:59.077Z,46.25
2023-04-12T02:07:20.985Z,46.33
2023-04-12T02:12:43.014Z,46.58
2023-04-12T02:18:06.041Z,46.54
2023-04-12T02:23:30.015Z,46.44
2023-04-12T02:28:52.976Z,46.50
2023-04-12T02:34:14.987Z,46.73
2023-04-12T02:39:44.974Z,46.97
2023-04-12T02:45:08.989Z,46.95
2023-04-12T02:50:32.005Z,46.84
2023-04-12T02:56:04.888Z,47.04
2023-04-12T03:01:27.965Z,47.32
2023-04-12T03:07:11.962Z,47.42
2023-04-12T03:12:37.973Z,47.17
2023-04-12T03:18:05.030Z,47.68
2023-04-12T03:23:32.988Z,47.83
2023-04-12T03:29:08.899Z,47.80
2023-04-12T03:34:33.993Z,47.53
2023-04-12T03:40:01.000Z,47.49
2023-04-12T03:45:23.962Z,47.65
2023-04-12T03:50:50.947Z,47.62
2023-04-12T03:56:13.972Z,47.99
2023-04-12T04:01:41.015Z,48.08
2023-04-12T04:07:02.960Z,47.82
2023-04-12T04:12:28.950Z,48.13
2023-04-12T04:17:53.993Z,48.19
2023-04-12T04:23:30.980Z,48.37
2023-04-12T04:28:53.952Z,48.48
2023-04-12T04:34:22.963Z,48.53
2023-04-12T04:39:54.948Z,48.59
2023-04-12T04:45:21.971Z,48.75
2023-04-12T04:50:43.940Z,48.79
2023-04-12T04:56:12.933Z,48.72
2023-04-12T05:01:43.044Z,48.81
2023-04-12T05:07:05.951Z,48.97
2023-04-12T05:12:29.953Z,49.09
2023-04-12T05:17:51.983Z,49.30
2023-04-12T05:23:13.932Z,49.24
2023-04-12T05:28:35.929Z,49.10
2023-04-12T05:34:00.933Z,49.40
2023-04-12T05:39:28.947Z,49.64
2023-04-12T05:44:51.956Z,49.73
2023-04-12T05:50:13.917Z,50.22
2023-04-12T05:55:38.095Z,49.99
2023-04-12T06:01:00.957Z,50.30
2023-04-12T06:06:22.963Z,50.36
2023-04-12T06:11:45.961Z,50.53
2023-04-12T06:17:07.929Z,50.60
2023-04-12T06:22:36.951Z,50.73
2023-04-12T06:27:59.916Z,51.09
2023-04-12T06:33:29.901Z,51.09
2023-04-12T06:38:57.084Z,50.62
2023-04-12T06:44:19.250Z,51.00
2023-04-12T06:49:40.913Z,50.93
2023-04-12T06:55:02.901Z,51.05
2023-04-12T07:00:24.913Z,51.57
2023-04-12T07:05:46.901Z,51.76
2023-04-12T07:16:35.971Z,51.36
2023-04-12T07:21:57.896Z,51.74
2023-04-12T07:27:19.935Z,51.93
2023-04-12T07:32:41.954Z,52.14
2023-04-12T07:38:03.899Z,52.45
2023-04-12T07:43:33.117Z,52.53
2023-04-12T07:48:54.969Z,52.69
2023-04-12T07:54:16.893Z,52.86
2023-04-12T07:59:38.880Z,52.62
2023-04-12T08:05:00.895Z,52.44
2023-04-12T08:10:22.875Z,52.52
2023-04-12T08:15:44.902Z,52.48
2023-04-12T08:21:06.909Z,52.17
2023-04-12T08:26:28.858Z,52.57
2023-04-12T08:31:50.890Z,52.72
2023-04-12T08:37:12.871Z,52.77
2023-04-12T08:42:34.903Z,52.67
2023-04-12T08:47:57.912Z,52.77
2023-04-12T08:53:19.907Z,52.78
2023-04-12T08:58:42.853Z,53.11
2023-04-12T09:04:05.161Z,53.11
2023-04-12T09:09:26.902Z,53.10
2023-04-12T09:14:51.865Z,53.34
2023-04-12T09:20:13.895Z,53.47
2023-04-12T09:25:52.002Z,53.43
2023-04-12T09:31:13.920Z,53.99
2023-04-12T09:36:43.876Z,53.58
2023-04-12T09:42:31.744Z,53.55
2023-04-12T09:47:55.070Z,53.60
2023-04-12T09:53:17.987Z,53.58
2023-04-12T09:58:42.900Z,53.81
2023-04-12T10:04:05.375Z,53.59
2023-04-12T10:09:26.853Z,53.66
2023-04-12T10:14:48.901Z,54.00
2023-04-12T10:20:11.878Z,54.20
2023-04-12T10:25:36.887Z,54.10
2023-04-12T10:31:02.951Z,53.84
2023-04-12T10:36:24.904Z,54.26
2023-04-12T10:42:25.092Z,54.20
2023-04-12T10:48:07.907Z,54.43
2023-04-12T10:53:31.858Z,54.31
2023-04-12T10:59:02.068Z,54.56
2023-04-12T11:04:28.929Z,54.39
2023-04-12T11:09:58.852Z,54.57
2023-04-12T11:15:23.824Z,54.82
2023-04-12T11:20:45.997Z,54.66
2023-04-12T11:26:09.817Z,54.92
2023-04-12T11:31:33.877Z,54.77
2023-04-12T11:36:59.847Z,54.80
2023-04-12T11:42:36.839Z,54.79
2023-04-12T11:47:58.850Z,54.56
2023-04-12T11:53:25.819Z,54.98
2023-04-12T11:58:47.831Z,55.23
2023-04-12T12:04:10.368Z,55.38
2023-04-12T12:09:32.822Z,55.17
2023-04-12T12:14:56.839Z,55.45
2023-04-12T12:20:27.790Z,55.25
2023-04-12T12:25:49.804Z,55.17
2023-04-12T12:31:16.826Z,55.32
2023-04-12T12:36:49.814Z,55.46
2023-04-12T12:42:14.805Z,55.41
2023-04-12T12:47:36.883Z,55.44
2023-04-12T12:52:59.804Z,55.24
2023-04-12T12:58:22.798Z,55.37
2023-04-12T13:03:44.985Z,55.72
2023-04-12T13:09:06.841Z,56.38
2023-04-12T13:14:28.803Z,56.49
2023-04-12T13:19:50.795Z,56.56
2023-04-12T13:25:13.798Z,56.77
2023-04-12T13:30:35.804Z,56.75
2023-04-12T13:35:57.801Z,56.65
2023-04-12T13:41:19.820Z,56.52
2023-04-12T13:46:41.847Z,56.38
2023-04-12T13:52:03.791Z,56.28
2023-04-12T13:57:25.786Z,56.34
2023-04-12T14:02:47.874Z,56.00
2023-04-12T14:08:09.792Z,56.02
2023-04-12T14:13:31.796Z,56.30
2023-04-12T14:18:53.844Z,55.97
2023-04-12T14:24:15.831Z,55.97
2023-04-12T14:29:37.833Z,56.41
2023-04-12T14:34:59.797Z,56.45
2023-04-12T14:40:21.787Z,56.62
2023-04-12T14:45:43.784Z,56.68
2023-04-12T14:51:05.754Z,56.51
2023-04-12T14:56:41.430Z,56.53
2023-04-12T15:02:05.879Z,56.47
2023-04-12T15:07:27.786Z,56.26
2023-04-12T15:12:49.793Z,56.50
2023-04-12T15:18:11.763Z,56.44
2023-04-12T15:23:40.793Z,56.38
2023-04-12T15:29:02.758Z,56.26
2023-04-12T15:34:24.767Z,56.33
2023-04-12T15:39:48.774Z,56.37
2023-04-12T15:45:10.794Z,56.34
2023-04-12T15:50:32.776Z,56.24
2023-04-12T15:56:03.770Z,56.41
2023-04-12T16:01:26.804Z,56.33
2023-04-12T16:06:48.785Z,56.19
2023-04-12T16:12:10.760Z,56.37
2023-04-12T16:17:32.843Z,56.26
2023-04-12T16:22:55.768Z,56.53
2023-04-12T16:28:18.740Z,56.69
2023-04-12T16:33:41.639Z,56.49
2023-04-12T16:39:05.773Z,56.49
2023-04-12T16:44:27.760Z,56.63
2023-04-12T16:49:49.762Z,56.77
2023-04-12T16:55:12.784Z,56.49
2023-04-12T17:00:35.734Z,56.44
2023-04-12T17:05:57.753Z,56.78
2023-04-12T17:11:19.754Z,57.08
2023-04-12T17:16:41.827Z,56.61
2023-04-12T17:22:04.759Z,56.59
2023-04-12T17:27:26.843Z,56.44
2023-04-12T17:32:48.830Z,56.37
2023-04-12T17:38:10.738Z,56.20
2023-04-12T17:43:32.750Z,56.17
2023-04-12T17:48:54.753Z,56.18
2023-04-12T17:54:16.752Z,56.05
2023-04-12T17:59:38.716Z,55.85
2023-04-12T18:05:00.744Z,55.95
2023-04-12T18:10:25.744Z,56.06
2023-04-12T18:15:47.743Z,56.02
2023-04-12T18:21:10.739Z,56.05
2023-04-12T18:26:32.748Z,56.12
2023-04-12T18:31:54.750Z,56.36
2023-04-12T18:37:16.752Z,56.69
2023-04-12T18:42:38.735Z,57.09
2023-04-12T18:48:00.781Z,57.16
2023-04-12T18:53:22.767Z,57.31
2023-04-12T18:58:54.644Z,57.43
2023-04-12T19:04:16.884Z,57.45
2023-04-12T19:09:38.728Z,57.38
2023-04-12T19:15:00.847Z,57.40
2023-04-12T19:20:22.724Z,57.05
2023-04-12T19:25:44.734Z,57.14
2023-04-12T19:31:08.926Z,56.80
2023-04-12T19:36:31.710Z,56.51
2023-04-12T19:41:55.701Z,56.44
2023-04-12T19:47:17.722Z,56.09
2023-04-12T19:52:39.700Z,56.25
2023-04-12T19:58:02.748Z,55.98
2023-04-12T20:03:24.774Z,55.85
2023-04-12T20:08:46.694Z,55.90
2023-04-12T20:14:08.874Z,55.92
2023-04-12T20:19:33.703Z,55.75
2023-04-12T20:24:55.714Z,55.43
2023-04-12T20:30:17.713Z,55.41
2023-04-12T20:35:39.680Z,55.00
2023-04-12T20:41:01.699Z,55.10
2023-04-12T20:46:23.782Z,54.94
2023-04-12T20:51:46.701Z,54.91
2023-04-12T20:57:10.703Z,55.05
2023-04-12T21:02:32.853Z,55.11
2023-04-12T21:07:54.692Z,55.32
2023-04-12T21:13:18.668Z,55.04
2023-04-12T21:18:40.687Z,55.11
2023-04-12T21:24:09.695Z,54.95
2023-04-12T21:29:33.104Z,54.86
2023-04-12T21:34:54.702Z,54.98
2023-04-12T21:40:18.697Z,55.14
2023-04-12T21:45:40.715Z,54.89
2023-04-12T21:51:02.679Z,54.75
2023-04-12T21:56:24.688Z,54.72
2023-04-12T22:01:46.764Z,54.70
2023-04-12T22:07:12.705Z,54.51
2023-04-12T22:12:34.669Z,54.81
2023-04-12T22:17:56.741Z,54.84
2023-04-12T22:23:25.673Z,54.75
2023-04-12T22:28:47.688Z,54.70
2023-04-12T22:34:10.690Z,54.67
2023-04-12T22:39:32.666Z,54.79
2023-04-12T22:44:56.729Z,54.75
2023-04-12T22:50:19.653Z,54.92
2023-04-12T22:55:43.681Z,54.61
2023-04-12T23:01:05.709Z,55.22
2023-04-12T23:06:27.691Z,54.82
2023-04-12T23:11:49.662Z,54.67
2023-04-12T23:17:11.669Z,54.63
2023-04-12T23:22:55.367Z,54.90
2023-04-12T23:28:36.666Z,54.93
2023-04-12T23:33:58.925Z,55.08
2023-04-12T23:39:20.677Z,54.80
2023-04-12T23:44:42.661Z,54.76
2023-04-12T23:50:04.656Z,54.88
2023-04-12T23:55:26.689Z,54.76
